RYR16AX LHBP-LBSF
Flight info
| Callsign | RYR16AX |
|---|---|
| Flight time | 1h 4m |
| Altitude | 37000 |
| Route | FAHAZ DCT KEROP DCT TISAK DCT RAVAK DCT NISVA |
| Aircraft | B738/M-SDE2E3FGHIRWXY/LB1 |
Departure
| Time | 2026-05-04 18:01 |
|---|---|
| Airport | Budapest Liszt Ferenc International Airport (LHBP) |
Arrival
| Time | 2026-05-04 19:05 |
|---|---|
| Airport | Sofia Airport (LBSF) |
| Time | Latitude | Longitude | Altitude | Speed | Heading |
|---|---|---|---|---|---|
| 2026-05-04 17:28 | 47.43541 | 19.26441 | 457 ft | 0 kts | 223° |
| 2026-05-04 17:49 | 47.43543 | 19.26442 | 457 ft | 1 kts | 223° |
| 2026-05-04 17:49 | 47.43554 | 19.26458 | 457 ft | 2 kts | 222° |
| 2026-05-04 17:50 | 47.43566 | 19.26476 | 454 ft | 3 kts | 243° |
| 2026-05-04 17:50 | 47.43569 | 19.26498 | 457 ft | 3 kts | 292° |
| 2026-05-04 17:50 | 47.43560 | 19.26521 | 455 ft | 2 kts | 312° |
| 2026-05-04 17:50 | 47.43557 | 19.26526 | 456 ft | 1 kts | 313° |
| 2026-05-04 17:54 | 47.43560 | 19.26519 | 457 ft | 2 kts | 313° |
| 2026-05-04 17:54 | 47.43584 | 19.26481 | 457 ft | 8 kts | 313° |
| 2026-05-04 17:54 | 47.43634 | 19.26402 | 457 ft | 13 kts | 313° |
| 2026-05-04 17:55 | 47.43711 | 19.26364 | 457 ft | 13 kts | 32° |
| 2026-05-04 17:55 | 47.43785 | 19.26412 | 457 ft | 12 kts | 340° |
| 2026-05-04 17:55 | 47.43843 | 19.26329 | 456 ft | 12 kts | 312° |
| 2026-05-04 17:55 | 47.43885 | 19.26262 | 457 ft | 5 kts | 313° |
| 2026-05-04 17:56 | 47.43893 | 19.26249 | 457 ft | 1 kts | 313° |
| 2026-05-04 17:56 | 47.43899 | 19.26239 | 457 ft | 1 kts | 313° |
| 2026-05-04 17:56 | 47.43905 | 19.26230 | 457 ft | 1 kts | 313° |
| 2026-05-04 17:56 | 47.43916 | 19.26217 | 457 ft | 3 kts | 325° |
| 2026-05-04 17:57 | 47.43944 | 19.26204 | 457 ft | 4 kts | 1° |
| 2026-05-04 17:57 | 47.43953 | 19.26210 | 457 ft | 0 kts | 30° |
| 2026-05-04 17:57 | 47.43961 | 19.26219 | 458 ft | 3 kts | 36° |
| 2026-05-04 17:58 | 47.43986 | 19.26250 | 457 ft | 6 kts | 41° |
| 2026-05-04 17:58 | 47.43999 | 19.26267 | 459 ft | 2 kts | 42° |
| 2026-05-04 17:58 | 47.44014 | 19.26287 | 459 ft | 4 kts | 41° |
| 2026-05-04 17:58 | 47.44033 | 19.26314 | 461 ft | 4 kts | 46° |
| 2026-05-04 17:59 | 47.44049 | 19.26345 | 463 ft | 4 kts | 57° |
| 2026-05-04 17:59 | 47.44060 | 19.26379 | 466 ft | 4 kts | 66° |
| 2026-05-04 17:59 | 47.44069 | 19.26508 | 469 ft | 9 kts | 106° |
| 2026-05-04 18:00 | 47.44009 | 19.26621 | 468 ft | 21 kts | 132° |
| 2026-05-04 18:00 | 47.43753 | 19.27034 | 473 ft | 90 kts | 132° |
| 2026-05-04 18:00 | 47.43183 | 19.27954 | 461 ft | 151 kts | 133° |
| 2026-05-04 18:00 | 47.42409 | 19.29203 | 901 ft | 165 kts | 136° |
| 2026-05-04 18:01 | 47.41746 | 19.30570 | 1663 ft | 171 kts | 119° |
| 2026-05-04 18:01 | 47.41214 | 19.32132 | 2430 ft | 170 kts | 123° |
| 2026-05-04 18:01 | 47.40641 | 19.33667 | 3220 ft | 171 kts | 123° |
| 2026-05-04 18:02 | 47.39391 | 19.36935 | 4246 ft | 207 kts | 123° |
| 2026-05-04 18:02 | 47.38574 | 19.38968 | 4650 ft | 218 kts | 131° |
| 2026-05-04 18:02 | 47.37431 | 19.40262 | 4888 ft | 230 kts | 163° |
| 2026-05-04 18:02 | 47.35815 | 19.40369 | 5250 ft | 243 kts | 194° |
| 2026-05-04 18:03 | 47.34294 | 19.39128 | 5570 ft | 260 kts | 222° |
| 2026-05-04 18:03 | 47.33156 | 19.36988 | 6239 ft | 269 kts | 238° |
| 2026-05-04 18:03 | 47.32212 | 19.34593 | 7115 ft | 270 kts | 240° |
| 2026-05-04 18:03 | 47.31296 | 19.32164 | 7948 ft | 273 kts | 240° |
| 2026-05-04 18:04 | 47.30358 | 19.29703 | 8747 ft | 277 kts | 239° |
| 2026-05-04 18:04 | 47.29394 | 19.27225 | 9572 ft | 281 kts | 239° |
| 2026-05-04 18:04 | 47.27359 | 19.22108 | 10587 ft | 310 kts | 238° |
| 2026-05-04 18:05 | 47.25870 | 19.19704 | 10818 ft | 329 kts | 211° |
| 2026-05-04 18:05 | 47.23692 | 19.18611 | 11445 ft | 336 kts | 186° |
| 2026-05-04 18:05 | 47.21352 | 19.18795 | 12189 ft | 341 kts | 168° |
| 2026-05-04 18:05 | 47.19057 | 19.19760 | 12922 ft | 345 kts | 162° |
| 2026-05-04 18:06 | 47.14463 | 19.22153 | 14307 ft | 355 kts | 161° |
| 2026-05-04 18:06 | 47.12131 | 19.23395 | 14974 ft | 358 kts | 161° |
| 2026-05-04 18:06 | 47.09803 | 19.24616 | 15616 ft | 362 kts | 161° |
| 2026-05-04 18:07 | 47.07382 | 19.25866 | 16278 ft | 366 kts | 161° |
| 2026-05-04 18:07 | 47.04959 | 19.27101 | 16902 ft | 371 kts | 161° |
| 2026-05-04 18:07 | 47.02505 | 19.28341 | 17522 ft | 376 kts | 161° |
| 2026-05-04 18:07 | 47.00019 | 19.29589 | 18139 ft | 380 kts | 161° |
| 2026-05-04 18:08 | 46.97537 | 19.30830 | 18707 ft | 384 kts | 161° |
| 2026-05-04 18:08 | 46.94960 | 19.32115 | 19253 ft | 388 kts | 161° |
| 2026-05-04 18:08 | 46.92425 | 19.33378 | 19800 ft | 392 kts | 161° |
| 2026-05-04 18:08 | 46.89834 | 19.34666 | 20362 ft | 394 kts | 161° |
| 2026-05-04 18:09 | 46.84594 | 19.37268 | 21444 ft | 401 kts | 161° |
| 2026-05-04 18:09 | 46.79270 | 19.39906 | 22501 ft | 408 kts | 161° |
| 2026-05-04 18:10 | 46.76567 | 19.41243 | 23010 ft | 411 kts | 161° |
| 2026-05-04 18:10 | 46.73844 | 19.42589 | 23514 ft | 415 kts | 161° |
| 2026-05-04 18:10 | 46.71101 | 19.43944 | 23924 ft | 418 kts | 161° |
| 2026-05-04 18:10 | 46.68334 | 19.45308 | 24323 ft | 422 kts | 161° |
| 2026-05-04 18:11 | 46.65544 | 19.46683 | 24726 ft | 425 kts | 161° |
| 2026-05-04 18:11 | 46.62736 | 19.48064 | 25119 ft | 428 kts | 161° |
| 2026-05-04 18:11 | 46.59904 | 19.49457 | 25510 ft | 431 kts | 161° |
| 2026-05-04 18:11 | 46.57050 | 19.50858 | 25885 ft | 434 kts | 161° |
| 2026-05-04 18:12 | 46.54177 | 19.52267 | 26255 ft | 437 kts | 161° |
| 2026-05-04 18:12 | 46.51286 | 19.53684 | 26618 ft | 440 kts | 161° |
| 2026-05-04 18:12 | 46.48372 | 19.55110 | 26974 ft | 444 kts | 161° |
| 2026-05-04 18:12 | 46.45433 | 19.56546 | 27323 ft | 447 kts | 161° |
| 2026-05-04 18:13 | 46.42480 | 19.57989 | 27666 ft | 450 kts | 161° |
| 2026-05-04 18:13 | 46.39506 | 19.59439 | 27999 ft | 453 kts | 161° |
| 2026-05-04 18:13 | 46.33499 | 19.62364 | 28679 ft | 458 kts | 161° |
| 2026-05-04 18:14 | 46.30472 | 19.63835 | 28995 ft | 461 kts | 161° |
| 2026-05-04 18:14 | 46.28448 | 19.64818 | 29206 ft | 463 kts | 161° |
| 2026-05-04 18:14 | 46.25387 | 19.66304 | 29516 ft | 465 kts | 161° |
| 2026-05-04 18:15 | 46.19212 | 19.69298 | 30097 ft | 471 kts | 160° |
| 2026-05-04 18:15 | 46.13197 | 19.73122 | 30600 ft | 474 kts | 153° |
| 2026-05-04 18:15 | 46.10244 | 19.75256 | 30927 ft | 474 kts | 152° |
| 2026-05-04 18:16 | 46.07304 | 19.77399 | 31307 ft | 473 kts | 152° |
| 2026-05-04 18:16 | 46.04372 | 19.79522 | 31698 ft | 471 kts | 152° |
| 2026-05-04 18:16 | 46.01445 | 19.81616 | 32074 ft | 470 kts | 153° |
| 2026-05-04 18:17 | 45.95583 | 19.85751 | 32739 ft | 468 kts | 153° |
| 2026-05-04 18:17 | 45.92659 | 19.87797 | 33072 ft | 468 kts | 153° |
| 2026-05-04 18:17 | 45.86820 | 19.91871 | 33735 ft | 466 kts | 153° |
| 2026-05-04 18:18 | 45.83901 | 19.93905 | 34057 ft | 465 kts | 153° |
| 2026-05-04 18:18 | 45.80991 | 19.95931 | 34343 ft | 464 kts | 153° |
| 2026-05-04 18:18 | 45.78088 | 19.97950 | 34599 ft | 464 kts | 153° |
| 2026-05-04 18:18 | 45.75182 | 19.99970 | 34841 ft | 464 kts | 153° |
| 2026-05-04 18:19 | 45.69355 | 20.04013 | 35054 ft | 469 kts | 153° |
| 2026-05-04 18:19 | 45.63481 | 20.08079 | 35059 ft | 468 kts | 153° |
| 2026-05-04 18:20 | 45.57670 | 20.12091 | 35069 ft | 462 kts | 153° |
| 2026-05-04 18:20 | 45.51910 | 20.16061 | 35082 ft | 464 kts | 153° |
| 2026-05-04 18:21 | 45.46227 | 20.20435 | 35085 ft | 466 kts | 141° |
| 2026-05-04 18:21 | 45.43648 | 20.23237 | 35317 ft | 465 kts | 140° |
| 2026-05-04 18:21 | 45.41113 | 20.26073 | 35627 ft | 463 kts | 140° |
| 2026-05-04 18:22 | 45.38560 | 20.28944 | 35930 ft | 461 kts | 140° |
| 2026-05-04 18:22 | 45.36074 | 20.31727 | 36180 ft | 460 kts | 140° |
| 2026-05-04 18:22 | 45.33548 | 20.34532 | 36391 ft | 460 kts | 140° |
| 2026-05-04 18:22 | 45.31019 | 20.37318 | 36607 ft | 460 kts | 141° |
| 2026-05-04 18:23 | 45.28482 | 20.40096 | 36835 ft | 460 kts | 141° |
| 2026-05-04 18:23 | 45.25950 | 20.42858 | 37051 ft | 460 kts | 141° |
| 2026-05-04 18:23 | 45.20846 | 20.48407 | 37086 ft | 463 kts | 141° |
| 2026-05-04 18:24 | 45.15746 | 20.53937 | 37067 ft | 460 kts | 141° |
| 2026-05-04 18:24 | 45.10683 | 20.59416 | 37074 ft | 457 kts | 141° |
| 2026-05-04 18:25 | 45.05635 | 20.64868 | 37090 ft | 457 kts | 141° |
| 2026-05-04 18:25 | 45.00541 | 20.70360 | 37099 ft | 463 kts | 141° |
| 2026-05-04 18:26 | 44.95403 | 20.75884 | 37090 ft | 466 kts | 141° |
| 2026-05-04 18:26 | 44.90232 | 20.81432 | 37079 ft | 468 kts | 141° |
| 2026-05-04 18:27 | 44.85052 | 20.86975 | 37080 ft | 466 kts | 141° |
| 2026-05-04 18:27 | 44.79932 | 20.92440 | 37072 ft | 457 kts | 141° |
| 2026-05-04 18:28 | 44.74858 | 20.97846 | 37102 ft | 458 kts | 141° |
| 2026-05-04 18:28 | 44.69756 | 21.03270 | 37090 ft | 461 kts | 141° |
| 2026-05-04 18:29 | 44.64652 | 21.08684 | 37081 ft | 459 kts | 141° |
| 2026-05-04 18:29 | 44.59562 | 21.14069 | 37083 ft | 457 kts | 142° |
| 2026-05-04 18:30 | 44.51992 | 21.22056 | 37088 ft | 456 kts | 142° |
| 2026-05-04 18:31 | 44.46897 | 21.27419 | 37100 ft | 459 kts | 142° |
| 2026-05-04 18:31 | 44.41784 | 21.32787 | 37090 ft | 459 kts | 142° |
| 2026-05-04 18:32 | 44.36679 | 21.38134 | 37088 ft | 458 kts | 142° |
| 2026-05-04 18:32 | 44.31588 | 21.43455 | 37091 ft | 456 kts | 142° |
| 2026-05-04 18:33 | 44.26543 | 21.48717 | 37088 ft | 451 kts | 142° |
| 2026-05-04 18:33 | 44.21496 | 21.53970 | 37116 ft | 456 kts | 142° |
| 2026-05-04 18:34 | 44.16393 | 21.59269 | 37098 ft | 456 kts | 142° |
| 2026-05-04 18:34 | 44.11333 | 21.64511 | 37089 ft | 451 kts | 142° |
| 2026-05-04 18:34 | 44.08804 | 21.67126 | 36762 ft | 456 kts | 142° |
| 2026-05-04 18:35 | 44.06259 | 21.69757 | 36456 ft | 455 kts | 142° |
| 2026-05-04 18:35 | 44.03720 | 21.72377 | 36049 ft | 455 kts | 142° |
| 2026-05-04 18:35 | 44.01185 | 21.74991 | 35661 ft | 454 kts | 142° |
| 2026-05-04 18:35 | 43.98650 | 21.77601 | 35260 ft | 454 kts | 142° |
| 2026-05-04 18:36 | 43.96104 | 21.80220 | 34861 ft | 456 kts | 141° |
| 2026-05-04 18:36 | 43.93553 | 21.82843 | 34463 ft | 457 kts | 141° |
| 2026-05-04 18:36 | 43.90997 | 21.85467 | 34024 ft | 457 kts | 141° |
| 2026-05-04 18:36 | 43.88443 | 21.88085 | 33568 ft | 456 kts | 141° |
| 2026-05-04 18:37 | 43.85894 | 21.90695 | 33133 ft | 454 kts | 142° |
| 2026-05-04 18:37 | 43.83360 | 21.93289 | 32725 ft | 453 kts | 142° |
| 2026-05-04 18:37 | 43.80834 | 21.95870 | 32318 ft | 451 kts | 142° |
| 2026-05-04 18:37 | 43.78312 | 21.98445 | 31921 ft | 449 kts | 142° |
| 2026-05-04 18:38 | 43.75809 | 22.00997 | 31514 ft | 444 kts | 142° |
| 2026-05-04 18:38 | 43.73341 | 22.03511 | 31131 ft | 438 kts | 142° |
| 2026-05-04 18:38 | 43.70905 | 22.05990 | 30743 ft | 432 kts | 143° |
| 2026-05-04 18:38 | 43.68499 | 22.08436 | 30365 ft | 427 kts | 143° |
| 2026-05-04 18:39 | 43.66149 | 22.10823 | 29964 ft | 422 kts | 143° |
| 2026-05-04 18:39 | 43.63769 | 22.13237 | 29556 ft | 417 kts | 143° |
| 2026-05-04 18:39 | 43.61462 | 22.15577 | 29159 ft | 416 kts | 143° |
| 2026-05-04 18:39 | 43.59130 | 22.17938 | 28770 ft | 417 kts | 143° |
| 2026-05-04 18:40 | 43.56785 | 22.20311 | 28360 ft | 418 kts | 143° |
| 2026-05-04 18:40 | 43.54451 | 22.22670 | 27974 ft | 414 kts | 144° |
| 2026-05-04 18:40 | 43.52140 | 22.25004 | 27563 ft | 410 kts | 144° |
| 2026-05-04 18:40 | 43.49854 | 22.27310 | 27190 ft | 406 kts | 144° |
| 2026-05-04 18:41 | 43.47584 | 22.29597 | 26796 ft | 404 kts | 144° |
| 2026-05-04 18:41 | 43.45316 | 22.31880 | 26409 ft | 402 kts | 144° |
| 2026-05-04 18:41 | 43.43062 | 22.34147 | 26031 ft | 400 kts | 144° |
| 2026-05-04 18:41 | 43.40819 | 22.36401 | 25655 ft | 399 kts | 144° |
| 2026-05-04 18:42 | 43.38576 | 22.38652 | 25275 ft | 398 kts | 144° |
| 2026-05-04 18:42 | 43.36348 | 22.40888 | 24904 ft | 396 kts | 144° |
| 2026-05-04 18:42 | 43.34124 | 22.43116 | 24526 ft | 395 kts | 144° |
| 2026-05-04 18:42 | 43.31909 | 22.45335 | 24151 ft | 393 kts | 144° |
| 2026-05-04 18:43 | 43.29703 | 22.47541 | 23781 ft | 392 kts | 143° |
| 2026-05-04 18:43 | 43.27501 | 22.49741 | 23346 ft | 391 kts | 143° |
| 2026-05-04 18:43 | 43.25312 | 22.51927 | 22934 ft | 388 kts | 143° |
| 2026-05-04 18:43 | 43.23137 | 22.54096 | 22550 ft | 385 kts | 143° |
| 2026-05-04 18:44 | 43.20981 | 22.56245 | 22190 ft | 382 kts | 143° |
| 2026-05-04 18:44 | 43.19530 | 22.57690 | 21935 ft | 380 kts | 143° |
| 2026-05-04 18:44 | 43.16711 | 22.60494 | 21457 ft | 376 kts | 143° |
| 2026-05-04 18:44 | 43.14601 | 22.62591 | 21101 ft | 373 kts | 143° |
| 2026-05-04 18:45 | 43.12504 | 22.64674 | 20747 ft | 371 kts | 143° |
| 2026-05-04 18:45 | 43.10421 | 22.66742 | 20397 ft | 369 kts | 142° |
| 2026-05-04 18:45 | 43.08342 | 22.68803 | 20044 ft | 367 kts | 142° |
| 2026-05-04 18:45 | 43.06283 | 22.70844 | 19693 ft | 365 kts | 142° |
| 2026-05-04 18:46 | 43.04233 | 22.72873 | 19347 ft | 363 kts | 142° |
| 2026-05-04 18:46 | 43.02195 | 22.74891 | 18997 ft | 361 kts | 142° |
| 2026-05-04 18:46 | 43.00161 | 22.76901 | 18649 ft | 361 kts | 142° |
| 2026-05-04 18:46 | 42.98126 | 22.78911 | 18271 ft | 361 kts | 142° |
| 2026-05-04 18:47 | 42.96232 | 22.81135 | 17823 ft | 357 kts | 130° |
| 2026-05-04 18:47 | 42.94611 | 22.83664 | 17432 ft | 352 kts | 128° |
| 2026-05-04 18:47 | 42.93053 | 22.86229 | 17025 ft | 350 kts | 127° |
| 2026-05-04 18:47 | 42.91512 | 22.88778 | 16634 ft | 346 kts | 127° |
| 2026-05-04 18:48 | 42.89979 | 22.91288 | 16249 ft | 343 kts | 127° |
| 2026-05-04 18:48 | 42.88446 | 22.93770 | 15874 ft | 341 kts | 127° |
| 2026-05-04 18:48 | 42.86929 | 22.96205 | 15502 ft | 338 kts | 127° |
| 2026-05-04 18:48 | 42.85405 | 22.98636 | 15170 ft | 334 kts | 127° |
| 2026-05-04 18:49 | 42.83917 | 23.01001 | 15125 ft | 326 kts | 127° |
| 2026-05-04 18:49 | 42.82438 | 23.03349 | 15119 ft | 327 kts | 127° |
| 2026-05-04 18:49 | 42.80950 | 23.05710 | 15126 ft | 331 kts | 127° |
| 2026-05-04 18:49 | 42.79443 | 23.08099 | 15119 ft | 332 kts | 128° |
| 2026-05-04 18:50 | 42.77960 | 23.10443 | 14824 ft | 324 kts | 127° |
| 2026-05-04 18:50 | 42.76497 | 23.12756 | 14315 ft | 321 kts | 127° |
| 2026-05-04 18:50 | 42.75068 | 23.15015 | 13677 ft | 320 kts | 127° |
| 2026-05-04 18:50 | 42.73607 | 23.17320 | 13289 ft | 323 kts | 127° |
| 2026-05-04 18:51 | 42.72135 | 23.19643 | 13178 ft | 325 kts | 127° |
| 2026-05-04 18:51 | 42.70645 | 23.21990 | 13108 ft | 320 kts | 127° |
| 2026-05-04 18:51 | 42.69190 | 23.24277 | 13113 ft | 320 kts | 127° |
| 2026-05-04 18:51 | 42.67734 | 23.26569 | 13112 ft | 321 kts | 127° |
| 2026-05-04 18:52 | 42.66271 | 23.28870 | 13101 ft | 321 kts | 127° |
| 2026-05-04 18:52 | 42.64844 | 23.31111 | 12927 ft | 314 kts | 127° |
| 2026-05-04 18:52 | 42.63419 | 23.33345 | 12447 ft | 311 kts | 127° |
| 2026-05-04 18:52 | 42.62098 | 23.35628 | 11755 ft | 307 kts | 114° |
| 2026-05-04 18:53 | 42.61443 | 23.38343 | 11066 ft | 301 kts | 94° |
| 2026-05-04 18:53 | 42.61266 | 23.41153 | 10516 ft | 297 kts | 90° |
| 2026-05-04 18:53 | 42.61120 | 23.43903 | 10395 ft | 279 kts | 90° |
| 2026-05-04 18:53 | 42.60978 | 23.46432 | 10298 ft | 267 kts | 90° |
| 2026-05-04 18:54 | 42.60838 | 23.48911 | 10144 ft | 261 kts | 90° |
| 2026-05-04 18:54 | 42.60693 | 23.51373 | 10044 ft | 262 kts | 90° |
| 2026-05-04 18:54 | 42.60552 | 23.53842 | 10010 ft | 262 kts | 90° |
| 2026-05-04 18:54 | 42.60413 | 23.56295 | 9867 ft | 259 kts | 89° |
| 2026-05-04 18:55 | 42.60275 | 23.58726 | 9552 ft | 259 kts | 90° |
| 2026-05-04 18:55 | 42.60010 | 23.63621 | 8884 ft | 260 kts | 90° |
| 2026-05-04 18:55 | 42.59879 | 23.66075 | 8577 ft | 261 kts | 90° |
| 2026-05-04 18:56 | 42.59736 | 23.68526 | 8265 ft | 261 kts | 90° |
| 2026-05-04 18:56 | 42.59592 | 23.70978 | 8065 ft | 260 kts | 90° |
| 2026-05-04 18:56 | 42.59449 | 23.73434 | 8030 ft | 262 kts | 90° |
| 2026-05-04 18:56 | 42.59305 | 23.75873 | 8016 ft | 256 kts | 90° |
| 2026-05-04 18:57 | 42.59160 | 23.78253 | 8001 ft | 251 kts | 90° |
| 2026-05-04 18:57 | 42.59017 | 23.80603 | 8018 ft | 248 kts | 90° |
| 2026-05-04 18:57 | 42.58875 | 23.82935 | 8003 ft | 248 kts | 90° |
| 2026-05-04 18:57 | 42.58728 | 23.85273 | 8005 ft | 249 kts | 90° |
| 2026-05-04 18:58 | 42.58578 | 23.87670 | 8029 ft | 257 kts | 90° |
| 2026-05-04 18:58 | 42.58782 | 23.90008 | 8010 ft | 245 kts | 63° |
| 2026-05-04 18:58 | 42.59776 | 23.91794 | 8020 ft | 236 kts | 34° |
| 2026-05-04 18:58 | 42.61289 | 23.92586 | 8007 ft | 238 kts | 5° |
| 2026-05-04 18:59 | 42.62908 | 23.92174 | 8014 ft | 243 kts | 336° |
| 2026-05-04 18:59 | 42.64182 | 23.90648 | 8021 ft | 251 kts | 307° |
| 2026-05-04 18:59 | 42.64818 | 23.88408 | 8028 ft | 259 kts | 288° |
| 2026-05-04 18:59 | 42.65224 | 23.86006 | 8026 ft | 263 kts | 287° |
| 2026-05-04 19:00 | 42.65645 | 23.83555 | 7792 ft | 270 kts | 287° |
| 2026-05-04 19:00 | 42.66085 | 23.81053 | 7443 ft | 274 kts | 287° |
| 2026-05-04 19:00 | 42.66383 | 23.79393 | 7192 ft | 273 kts | 287° |
| 2026-05-04 19:00 | 42.66981 | 23.76108 | 6688 ft | 261 kts | 287° |
| 2026-05-04 19:01 | 42.67275 | 23.74528 | 6342 ft | 259 kts | 287° |
| 2026-05-04 19:01 | 42.67707 | 23.72221 | 5993 ft | 246 kts | 285° |
| 2026-05-04 19:01 | 42.68047 | 23.69157 | 5396 ft | 239 kts | 277° |
| 2026-05-04 19:01 | 42.68137 | 23.67683 | 5176 ft | 232 kts | 276° |
| 2026-05-04 19:02 | 42.68253 | 23.65542 | 4874 ft | 223 kts | 276° |
| 2026-05-04 19:02 | 42.68367 | 23.63489 | 4566 ft | 213 kts | 276° |
| 2026-05-04 19:02 | 42.68480 | 23.61523 | 4287 ft | 204 kts | 276° |
| 2026-05-04 19:02 | 42.68590 | 23.59640 | 4028 ft | 197 kts | 276° |
| 2026-05-04 19:03 | 42.68697 | 23.57798 | 3783 ft | 193 kts | 275° |
| 2026-05-04 19:03 | 42.68802 | 23.55994 | 3523 ft | 190 kts | 275° |
| 2026-05-04 19:03 | 42.68904 | 23.54247 | 3262 ft | 181 kts | 275° |
| 2026-05-04 19:03 | 42.69001 | 23.52589 | 2994 ft | 171 kts | 275° |
| 2026-05-04 19:04 | 42.69096 | 23.50971 | 2800 ft | 163 kts | 275° |
| 2026-05-04 19:04 | 42.69179 | 23.49500 | 2548 ft | 159 kts | 274° |
| 2026-05-04 19:04 | 42.69271 | 23.48000 | 2359 ft | 161 kts | 274° |
| 2026-05-04 19:04 | 42.69364 | 23.46488 | 2160 ft | 159 kts | 273° |
| 2026-05-04 19:05 | 42.69452 | 23.45002 | 1936 ft | 157 kts | 273° |
| 2026-05-04 19:05 | 42.69543 | 23.43538 | 1749 ft | 153 kts | 273° |
| 2026-05-04 19:05 | 42.69611 | 23.42341 | 1748 ft | 96 kts | 275° |
| 2026-05-04 19:05 | 42.69636 | 23.41809 | 1746 ft | 32 kts | 264° |
| 2026-05-04 19:06 | 42.69591 | 23.41584 | 1745 ft | 18 kts | 245° |
| 2026-05-04 19:06 | 42.69538 | 23.41431 | 1749 ft | 17 kts | 245° |
| 2026-05-04 19:06 | 42.69496 | 23.41302 | 1750 ft | 14 kts | 251° |
| 2026-05-04 19:06 | 42.69456 | 23.41211 | 1749 ft | 7 kts | 199° |
| 2026-05-04 19:07 | 42.69406 | 23.41195 | 1752 ft | 7 kts | 186° |
| 2026-05-04 19:07 | 42.69358 | 23.41187 | 1746 ft | 7 kts | 189° |
| 2026-05-04 19:07 | 42.69305 | 23.41173 | 1752 ft | 9 kts | 191° |
| 2026-05-04 19:07 | 42.69228 | 23.41152 | 1752 ft | 13 kts | 191° |
| 2026-05-04 19:08 | 42.69143 | 23.41124 | 1747 ft | 12 kts | 194° |
| 2026-05-04 19:08 | 42.69070 | 23.41147 | 1746 ft | 5 kts | 162° |
| 2026-05-04 19:08 | 42.69056 | 23.41153 | 1752 ft | 0 kts | 162° |